createdAt,value
2023-05-31T00:01:18.296Z,59.41
2023-05-31T00:06:25.330Z,59.54
2023-05-31T00:11:32.499Z,59.90
2023-05-31T00:21:49.502Z,60.26
2023-05-31T00:26:56.563Z,60.68
2023-05-31T00:32:03.915Z,60.96
2023-05-31T00:37:11.118Z,61.21
2023-05-31T00:42:18.580Z,61.47
2023-05-31T00:47:27.023Z,61.55
2023-05-31T00:52:35.349Z,61.87
2023-05-31T00:57:42.930Z,62.10
2023-05-31T01:02:52.182Z,62.19
2023-05-31T01:07:59.598Z,62.39
2023-05-31T01:13:25.548Z,62.62
2023-05-31T01:18:46.024Z,62.75
2023-05-31T01:24:10.895Z,62.94
2023-05-31T01:29:21.906Z,63.23
2023-05-31T01:34:30.164Z,63.39
2023-05-31T01:39:37.260Z,63.53
2023-05-31T01:44:45.678Z,63.59
2023-05-31T01:49:53.212Z,63.80
2023-05-31T01:55:00.300Z,64.28
2023-05-31T02:00:13.132Z,64.53
2023-05-31T02:05:20.546Z,64.31
2023-05-31T02:10:27.477Z,64.24
2023-05-31T02:15:34.367Z,64.49
2023-05-31T02:20:41.458Z,64.44
2023-05-31T02:25:49.947Z,64.35
2023-05-31T02:31:01.403Z,64.42
2023-05-31T02:36:12.531Z,64.59
2023-05-31T02:41:19.344Z,64.57
2023-05-31T02:46:26.393Z,64.49
2023-05-31T02:51:34.715Z,64.52
2023-05-31T02:56:42.319Z,64.57
2023-05-31T03:01:55.330Z,64.79
2023-05-31T03:07:16.590Z,64.75
2023-05-31T03:12:25.044Z,64.83
2023-05-31T03:17:32.898Z,64.93
2023-05-31T03:22:40.462Z,65.06
2023-05-31T03:27:48.638Z,65.26
2023-05-31T03:32:55.991Z,65.35
2023-05-31T03:38:03.205Z,65.36
2023-05-31T03:43:11.344Z,65.39
2023-05-31T03:48:19.671Z,65.49
2023-05-31T03:53:28.749Z,65.53
2023-05-31T03:58:37.643Z,65.56
2023-05-31T04:03:47.982Z,65.50
2023-05-31T04:08:55.132Z,65.33
2023-05-31T04:14:02.051Z,65.12
2023-05-31T04:19:09.487Z,65.04
2023-05-31T04:24:16.568Z,64.91
2023-05-31T04:29:23.726Z,64.79
2023-05-31T04:34:31.996Z,64.70
2023-05-31T04:39:39.661Z,64.87
2023-05-31T04:44:47.474Z,64.48
2023-05-31T04:49:55.550Z,64.39
2023-05-31T04:55:04.161Z,64.03
2023-05-31T05:00:17.060Z,63.98
2023-05-31T05:05:43.376Z,63.37
2023-05-31T05:10:50.676Z,62.97
2023-05-31T05:15:58.149Z,62.54
2023-05-31T05:21:05.814Z,61.99
2023-05-31T05:26:15.225Z,61.57
2023-05-31T05:31:22.395Z,61.38
2023-05-31T05:36:29.806Z,60.90
2023-05-31T05:41:37.264Z,60.58
2023-05-31T05:46:45.283Z,60.32
2023-05-31T05:51:53.274Z,60.06
2023-05-31T05:57:00.577Z,59.22
2023-05-31T06:02:10.206Z,58.94
2023-05-31T06:07:17.459Z,58.60
2023-05-31T06:12:24.565Z,57.93
2023-05-31T06:17:31.713Z,57.75
2023-05-31T06:22:38.822Z,57.07
2023-05-31T06:27:47.532Z,56.98
2023-05-31T06:32:56.556Z,56.58
2023-05-31T06:38:05.730Z,56.15
2023-05-31T06:43:14.538Z,55.81
2023-05-31T06:48:41.538Z,55.72
2023-05-31T06:54:08.888Z,55.19
2023-05-31T06:59:20.066Z,54.05
2023-05-31T07:04:27.228Z,53.50
2023-05-31T07:09:34.707Z,53.57
2023-05-31T07:14:42.910Z,52.70
2023-05-31T07:19:51.392Z,51.79
2023-05-31T07:24:58.331Z,51.14
2023-05-31T07:30:05.518Z,51.30
2023-05-31T07:35:12.933Z,50.45
2023-05-31T07:40:20.240Z,50.20
2023-05-31T07:45:27.518Z,49.61
2023-05-31T07:50:34.693Z,49.41
2023-05-31T07:55:41.661Z,48.61
2023-05-31T08:00:48.854Z,48.57
2023-05-31T08:05:56.393Z,48.51
2023-05-31T08:11:04.066Z,48.09
2023-05-31T08:16:11.093Z,47.72
2023-05-31T08:21:18.530Z,46.72
2023-05-31T08:26:26.849Z,45.86
2023-05-31T08:31:34.088Z,46.00
2023-05-31T08:36:41.510Z,45.16
2023-05-31T08:41:54.849Z,44.62
2023-05-31T08:47:10.271Z,43.16
2023-05-31T08:52:19.618Z,43.66
2023-05-31T08:57:29.393Z,43.26
2023-05-31T09:02:37.285Z,42.88
2023-05-31T09:07:44.656Z,41.41
2023-05-31T09:12:51.556Z,41.03
2023-05-31T09:17:59.416Z,40.48
2023-05-31T09:23:09.839Z,40.87
2023-05-31T09:28:17.168Z,40.70
2023-05-31T09:33:24.606Z,40.44
2023-05-31T09:38:36.523Z,40.20
2023-05-31T09:43:44.476Z,39.92
2023-05-31T09:49:01.436Z,39.13
2023-05-31T09:54:15.909Z,39.53
2023-05-31T09:59:23.917Z,39.37
2023-05-31T10:04:32.718Z,38.94
2023-05-31T10:09:39.675Z,38.55
2023-05-31T10:14:56.481Z,38.65
2023-05-31T10:20:09.266Z,38.23
2023-05-31T10:25:26.497Z,37.41
2023-05-31T10:30:36.453Z,36.69
2023-05-31T10:35:43.488Z,36.58
2023-05-31T10:40:55.395Z,37.15
2023-05-31T10:46:07.119Z,36.22
2023-05-31T10:51:14.327Z,36.21
2023-05-31T10:56:23.846Z,36.30
2023-05-31T11:01:32.873Z,35.55
2023-05-31T11:06:39.980Z,35.79
2023-05-31T11:11:51.313Z,33.91
2023-05-31T11:17:21.610Z,33.91
2023-05-31T11:22:30.174Z,34.17
2023-05-31T11:27:41.944Z,34.67
2023-05-31T11:33:01.596Z,33.01
2023-05-31T11:38:08.287Z,32.86
2023-05-31T11:43:20.422Z,32.43
2023-05-31T11:48:47.260Z,32.96
2023-05-31T11:53:57.996Z,32.49
2023-05-31T11:59:05.001Z,31.65
2023-05-31T12:04:11.965Z,30.55
2023-05-31T12:09:19.179Z,29.39
2023-05-31T12:14:27.324Z,29.18
2023-05-31T12:19:34.856Z,27.62
2023-05-31T12:24:51.662Z,26.52
2023-05-31T12:30:01.861Z,26.13
2023-05-31T12:35:13.644Z,25.43
2023-05-31T12:40:24.240Z,23.58
2023-05-31T12:45:31.756Z,24.40
2023-05-31T12:50:38.948Z,22.27
2023-05-31T12:55:46.454Z,22.77
2023-05-31T13:00:53.665Z,22.45
2023-05-31T13:06:00.837Z,21.21
2023-05-31T13:11:08.055Z,21.35
2023-05-31T13:16:13.478Z,19.69
2023-05-31T13:21:20.579Z,19.65
2023-05-31T13:26:29.046Z,19.51
2023-05-31T13:31:36.264Z,18.75
2023-05-31T13:36:43.303Z,18.51
2023-05-31T13:41:50.724Z,18.21
2023-05-31T13:46:58.125Z,17.33
2023-05-31T13:52:06.718Z,16.98
2023-05-31T13:57:13.786Z,16.99
2023-05-31T14:02:24.081Z,17.03
2023-05-31T14:07:31.752Z,17.20
2023-05-31T14:12:38.809Z,16.64
2023-05-31T14:17:46.610Z,16.59
2023-05-31T14:22:53.636Z,15.84
2023-05-31T14:28:00.630Z,15.58
2023-05-31T14:33:07.640Z,15.35
2023-05-31T14:38:21.875Z,15.31
2023-05-31T14:43:44.741Z,15.23
2023-05-31T14:48:52.361Z,15.55
2023-05-31T14:53:59.341Z,15.02
2023-05-31T14:59:06.397Z,14.92
2023-05-31T15:04:14.793Z,14.54
2023-05-31T15:09:22.114Z,14.84
2023-05-31T15:14:29.192Z,14.63
2023-05-31T15:19:37.003Z,14.42
2023-05-31T15:24:44.182Z,14.30
2023-05-31T15:29:51.434Z,14.39
2023-05-31T15:34:58.380Z,14.70
2023-05-31T15:40:05.730Z,14.96
2023-05-31T15:45:13.437Z,14.48
2023-05-31T15:50:20.708Z,14.67
2023-05-31T15:55:30.145Z,14.84
2023-05-31T16:00:37.030Z,15.15
2023-05-31T16:05:44.168Z,15.45
2023-05-31T16:10:51.129Z,14.82
2023-05-31T16:15:56.487Z,15.40
2023-05-31T16:21:03.912Z,15.76
2023-05-31T16:26:11.205Z,15.68
2023-05-31T16:31:21.484Z,16.21
2023-05-31T16:36:28.998Z,16.17
2023-05-31T16:41:36.236Z,16.27
2023-05-31T16:46:43.331Z,15.79
2023-05-31T16:51:50.271Z,15.67
2023-05-31T16:56:57.231Z,15.60
2023-05-31T17:02:04.196Z,15.73
2023-05-31T17:07:11.498Z,15.78
2023-05-31T17:12:18.679Z,15.98
2023-05-31T17:17:25.581Z,15.96
2023-05-31T17:22:32.545Z,15.71
2023-05-31T17:27:39.449Z,15.94
2023-05-31T17:32:47.272Z,16.43
2023-05-31T17:37:54.950Z,16.45
2023-05-31T17:43:01.899Z,17.09
2023-05-31T17:48:09.422Z,17.88
2023-05-31T17:53:16.734Z,18.48
2023-05-31T17:58:28.420Z,19.58
2023-05-31T18:03:35.421Z,20.52
2023-05-31T18:08:42.622Z,21.65
2023-05-31T18:13:49.956Z,22.92
2023-05-31T18:18:57.073Z,24.04
2023-05-31T18:24:04.479Z,25.12
2023-05-31T18:29:11.501Z,26.14
2023-05-31T18:34:18.793Z,27.07
2023-05-31T18:39:25.751Z,27.83
2023-05-31T18:44:33.054Z,28.92
2023-05-31T18:49:40.023Z,29.92
2023-05-31T18:54:47.283Z,30.86
2023-05-31T18:59:54.266Z,31.97
2023-05-31T19:05:02.269Z,32.69
2023-05-31T19:10:10.837Z,33.28
2023-05-31T19:15:17.940Z,34.06
2023-05-31T19:20:25.007Z,34.96
2023-05-31T19:25:32.225Z,35.72
2023-05-31T19:30:39.841Z,36.26
2023-05-31T19:35:47.147Z,37.00
2023-05-31T19:40:54.173Z,37.89
2023-05-31T19:46:02.208Z,38.43
2023-05-31T19:51:09.465Z,39.03
2023-05-31T19:56:16.600Z,39.78
2023-05-31T20:01:24.067Z,40.51
2023-05-31T20:06:31.269Z,41.11
2023-05-31T20:11:40.690Z,41.72
2023-05-31T20:16:47.810Z,42.37
2023-05-31T20:21:56.077Z,42.90
2023-05-31T20:27:03.242Z,43.46
2023-05-31T20:32:11.600Z,44.09
2023-05-31T20:37:19.999Z,44.57
2023-05-31T20:42:27.159Z,45.18
2023-05-31T20:47:35.230Z,45.76
2023-05-31T20:52:42.441Z,46.21
2023-05-31T20:57:49.914Z,46.59
2023-05-31T21:02:58.661Z,47.10
2023-05-31T21:08:06.069Z,47.48
2023-05-31T21:13:13.177Z,47.87
2023-05-31T21:18:20.326Z,48.41
2023-05-31T21:23:27.318Z,48.98
2023-05-31T21:28:34.422Z,49.40
2023-05-31T21:33:41.525Z,49.90
2023-05-31T21:38:48.942Z,50.48
2023-05-31T21:43:57.730Z,50.89
2023-05-31T21:49:04.748Z,51.42
2023-05-31T21:54:11.864Z,51.93
2023-05-31T21:59:18.917Z,52.40
2023-05-31T22:04:26.045Z,52.94
2023-05-31T22:09:33.203Z,53.34
2023-05-31T22:14:41.155Z,53.77
2023-05-31T22:19:48.373Z,54.33
2023-05-31T22:25:01.608Z,54.72
2023-05-31T22:30:20.117Z,55.32
2023-05-31T22:35:27.929Z,55.77
2023-05-31T22:40:35.018Z,56.22
2023-05-31T22:45:42.301Z,56.52
2023-05-31T22:50:50.449Z,56.94
2023-05-31T22:55:57.514Z,57.37
2023-05-31T23:01:04.834Z,57.74
2023-05-31T23:06:13.892Z,58.05
2023-05-31T23:11:23.108Z,58.49
2023-05-31T23:16:30.540Z,58.87
2023-05-31T23:21:39.207Z,59.16
2023-05-31T23:26:47.911Z,59.54
2023-05-31T23:31:54.969Z,59.84
2023-05-31T23:37:02.039Z,60.12
2023-05-31T23:42:11.212Z,60.45
2023-05-31T23:47:18.222Z,60.63
2023-05-31T23:52:25.370Z,61.00
2023-05-31T23:57:32.552Z,61.28
